createdAt,value
2023-03-29T00:02:19.792Z,67.75
2023-03-29T00:04:47.242Z,67.75
2023-03-29T00:07:14.487Z,67.48
2023-03-29T00:09:42.627Z,68.58
2023-03-29T00:12:11.705Z,67.98
2023-03-29T00:14:38.675Z,68.45
2023-03-29T00:17:06.490Z,68.78
2023-03-29T00:19:35.895Z,68.76
2023-03-29T00:22:06.122Z,68.38
2023-03-29T00:24:33.246Z,68.45
2023-03-29T00:27:00.436Z,68.57
2023-03-29T00:29:27.541Z,68.76
2023-03-29T00:31:56.084Z,68.36
2023-03-29T00:34:24.359Z,68.16
2023-03-29T00:36:53.139Z,68.17
2023-03-29T00:39:21.277Z,67.72
2023-03-29T00:41:49.901Z,67.61
2023-03-29T00:44:54.370Z,67.73
2023-03-29T00:47:51.448Z,67.89
2023-03-29T00:50:29.759Z,67.76
2023-03-29T00:53:03.828Z,67.49
2023-03-29T00:55:45.586Z,68.53
2023-03-29T00:58:15.962Z,67.89
2023-03-29T01:00:52.256Z,67.63
2023-03-29T01:03:24.903Z,67.62
2023-03-29T01:05:58.498Z,67.95
2023-03-29T01:08:51.703Z,68.41
2023-03-29T01:11:24.205Z,68.06
2023-03-29T01:13:59.387Z,68.49
2023-03-29T01:16:29.040Z,67.84
2023-03-29T01:19:00.481Z,67.44
2023-03-29T01:21:33.392Z,68.08
2023-03-29T01:24:07.096Z,67.85
2023-03-29T01:27:12.642Z,67.78
2023-03-29T01:30:04.340Z,68.54
2023-03-29T01:32:42.519Z,68.85
2023-03-29T01:35:32.680Z,68.46
2023-03-29T01:38:22.858Z,68.29
2023-03-29T01:40:49.985Z,67.66
2023-03-29T01:43:36.860Z,68.62
2023-03-29T01:46:10.503Z,68.70
2023-03-29T01:48:59.907Z,68.63
2023-03-29T01:51:42.794Z,68.01
2023-03-29T01:54:20.872Z,68.76
2023-03-29T01:56:50.600Z,68.65
2023-03-29T01:59:23.031Z,68.39
2023-03-29T02:01:54.889Z,68.48
2023-03-29T02:04:27.985Z,68.31
2023-03-29T02:06:57.842Z,68.15
2023-03-29T02:09:24.831Z,68.66
2023-03-29T02:11:52.846Z,68.54
2023-03-29T02:14:20.127Z,68.46
2023-03-29T02:17:21.674Z,68.51
2023-03-29T02:19:55.146Z,67.80
2023-03-29T02:22:28.813Z,68.22
2023-03-29T02:24:59.275Z,67.56
2023-03-29T02:27:29.225Z,67.70
2023-03-29T02:29:58.440Z,67.11
2023-03-29T02:32:54.312Z,67.51
2023-03-29T02:35:34.322Z,67.75
2023-03-29T02:38:05.984Z,67.29
2023-03-29T02:40:34.860Z,67.16
2023-03-29T02:43:05.128Z,66.84
2023-03-29T02:45:33.178Z,66.81
2023-03-29T02:48:09.063Z,67.20
2023-03-29T02:50:39.962Z,67.49
2023-03-29T02:53:13.349Z,67.55
2023-03-29T02:55:42.083Z,67.39
2023-03-29T02:58:09.386Z,67.49
2023-03-29T03:00:42.576Z,67.46
2023-03-29T03:03:10.462Z,67.05
2023-03-29T03:05:38.526Z,66.73
2023-03-29T03:08:07.568Z,66.75
2023-03-29T03:10:35.539Z,67.01
2023-03-29T03:13:04.200Z,67.08
2023-03-29T03:15:35.895Z,66.97
2023-03-29T03:18:04.059Z,67.33
2023-03-29T03:20:32.195Z,67.14
2023-03-29T03:22:59.282Z,66.75
2023-03-29T03:25:26.510Z,67.15
2023-03-29T03:27:54.393Z,66.88
2023-03-29T03:30:24.149Z,66.83
2023-03-29T03:33:29.327Z,66.72
2023-03-29T03:36:29.240Z,66.29
2023-03-29T03:38:57.251Z,66.25
2023-03-29T03:41:26.199Z,66.45
2023-03-29T03:43:53.457Z,66.13
2023-03-29T03:46:20.740Z,66.01
2023-03-29T03:48:48.536Z,66.43
2023-03-29T03:51:27.993Z,66.20
2023-03-29T03:53:55.040Z,66.20
2023-03-29T03:56:34.439Z,66.13
2023-03-29T03:59:07.365Z,66.45
2023-03-29T04:01:53.000Z,66.04
2023-03-29T04:04:23.615Z,66.24
2023-03-29T04:07:02.882Z,65.93
2023-03-29T04:09:48.957Z,66.21
2023-03-29T04:12:34.633Z,66.08
2023-03-29T04:15:02.495Z,65.72
2023-03-29T04:17:31.993Z,65.32
2023-03-29T04:20:19.015Z,65.34
2023-03-29T04:22:46.222Z,65.28
2023-03-29T04:25:13.516Z,65.44
2023-03-29T04:27:50.602Z,65.32
2023-03-29T04:30:33.981Z,64.84
2023-03-29T04:33:11.318Z,64.81
2023-03-29T04:35:41.227Z,64.80
2023-03-29T04:38:12.669Z,64.28
2023-03-29T04:40:40.809Z,64.28
2023-03-29T04:43:17.805Z,63.81
2023-03-29T04:45:55.312Z,63.79
2023-03-29T04:48:48.769Z,63.72
2023-03-29T04:51:17.724Z,63.94
2023-03-29T04:53:45.569Z,63.81
2023-03-29T04:56:12.601Z,63.98
2023-03-29T04:59:08.434Z,63.88
2023-03-29T05:01:35.795Z,64.14
2023-03-29T05:04:03.499Z,63.83
2023-03-29T05:06:37.411Z,63.39
2023-03-29T05:09:07.739Z,63.72
2023-03-29T05:12:04.292Z,63.50
2023-03-29T05:14:42.400Z,63.50
2023-03-29T05:17:09.566Z,63.23
2023-03-29T05:19:37.507Z,62.98
2023-03-29T05:22:04.752Z,62.44
2023-03-29T05:24:32.661Z,62.34
2023-03-29T05:27:05.100Z,62.22
2023-03-29T05:29:34.773Z,62.30
2023-03-29T05:32:22.347Z,62.31
2023-03-29T05:34:49.369Z,62.36
2023-03-29T05:37:17.264Z,62.45
2023-03-29T05:39:52.631Z,62.03
2023-03-29T05:42:23.728Z,62.34
2023-03-29T05:44:55.120Z,62.22
2023-03-29T05:47:22.564Z,61.58
2023-03-29T05:49:50.488Z,61.89
2023-03-29T05:52:22.323Z,61.80
2023-03-29T05:54:49.278Z,61.58
2023-03-29T05:57:17.087Z,61.52
2023-03-29T05:59:44.390Z,61.43
2023-03-29T06:02:12.574Z,61.44
2023-03-29T06:04:45.026Z,60.96
2023-03-29T06:07:24.559Z,60.64
2023-03-29T06:10:10.653Z,60.84
2023-03-29T06:12:40.914Z,60.34
2023-03-29T06:15:09.090Z,60.23
2023-03-29T06:17:45.995Z,59.90
2023-03-29T06:20:14.481Z,59.46
2023-03-29T06:22:46.832Z,59.62
2023-03-29T06:25:15.684Z,59.65
2023-03-29T06:27:46.845Z,58.84
2023-03-29T06:30:16.482Z,59.17
2023-03-29T06:32:49.962Z,58.68
2023-03-29T06:35:43.761Z,58.80
2023-03-29T06:38:15.331Z,58.56
2023-03-29T06:41:07.624Z,58.12
2023-03-29T06:44:10.383Z,58.32
2023-03-29T06:46:49.096Z,58.23
2023-03-29T06:49:16.042Z,58.44
2023-03-29T06:52:03.277Z,58.68
2023-03-29T06:54:31.343Z,58.61
2023-03-29T06:57:05.449Z,58.92
2023-03-29T06:59:35.046Z,59.54
2023-03-29T07:02:13.287Z,59.61
2023-03-29T07:05:13.718Z,59.70
2023-03-29T07:07:55.264Z,59.65
2023-03-29T07:10:41.469Z,59.36
2023-03-29T07:13:34.446Z,59.01
2023-03-29T07:16:04.944Z,59.17
2023-03-29T07:18:50.357Z,58.76
2023-03-29T07:21:37.858Z,59.17
2023-03-29T07:24:06.899Z,58.99
2023-03-29T07:26:36.001Z,59.30
2023-03-29T07:29:03.094Z,59.81
2023-03-29T07:31:30.829Z,59.89
2023-03-29T07:34:17.853Z,60.17
2023-03-29T07:36:45.327Z,59.88
2023-03-29T07:39:15.747Z,60.07
2023-03-29T07:41:57.816Z,61.18
2023-03-29T07:44:25.084Z,60.97
2023-03-29T07:46:52.328Z,61.45
2023-03-29T07:49:20.995Z,61.00
2023-03-29T07:51:49.420Z,61.93
2023-03-29T07:54:16.450Z,60.74
2023-03-29T07:57:03.922Z,60.72
2023-03-29T07:59:39.336Z,60.79
2023-03-29T08:02:13.585Z,61.31
2023-03-29T08:04:49.887Z,61.86
2023-03-29T08:07:21.646Z,61.75
2023-03-29T08:10:04.262Z,61.03
2023-03-29T08:12:49.294Z,61.60
2023-03-29T08:15:17.491Z,61.45
2023-03-29T08:17:45.138Z,61.01
2023-03-29T08:20:16.356Z,60.75
2023-03-29T08:22:46.183Z,60.38
2023-03-29T08:25:15.785Z,61.04
2023-03-29T08:27:46.884Z,61.16
2023-03-29T08:30:18.355Z,62.00
2023-03-29T08:32:48.663Z,61.69
2023-03-29T08:35:18.034Z,61.67
2023-03-29T08:37:59.746Z,61.53
2023-03-29T08:40:30.126Z,61.14
2023-03-29T08:43:12.555Z,60.76
2023-03-29T08:46:06.410Z,60.70
2023-03-29T08:49:02.734Z,60.21
2023-03-29T08:51:50.452Z,60.05
2023-03-29T08:54:25.113Z,60.07
2023-03-29T08:57:22.833Z,60.48
2023-03-29T08:59:56.212Z,61.20
2023-03-29T09:02:28.766Z,60.85
2023-03-29T09:05:09.426Z,61.46
2023-03-29T09:07:47.615Z,61.45
2023-03-29T09:10:18.345Z,62.43
2023-03-29T09:13:09.481Z,63.18
2023-03-29T09:16:06.837Z,63.42
2023-03-29T09:19:17.189Z,64.10
2023-03-29T09:21:59.362Z,63.58
2023-03-29T09:25:00.727Z,64.92
2023-03-29T09:27:54.616Z,65.50
2023-03-29T09:30:50.205Z,65.53
2023-03-29T09:33:25.025Z,65.90
2023-03-29T09:36:29.246Z,66.71
2023-03-29T09:38:57.037Z,65.48
2023-03-29T09:41:43.431Z,66.54
2023-03-29T09:44:28.123Z,66.65
2023-03-29T09:47:10.024Z,66.45
2023-03-29T09:49:47.462Z,65.83
2023-03-29T09:52:17.143Z,66.50
2023-03-29T09:54:52.601Z,66.14
2023-03-29T09:57:22.396Z,65.33
2023-03-29T09:59:51.791Z,65.83
2023-03-29T10:02:21.216Z,65.92
2023-03-29T10:05:04.138Z,65.26
2023-03-29T10:07:44.783Z,66.13
2023-03-29T10:10:27.449Z,65.79
2023-03-29T10:12:59.582Z,65.67
2023-03-29T10:15:30.869Z,65.77
2023-03-29T10:18:05.922Z,67.43
2023-03-29T10:20:36.890Z,68.08
2023-03-29T10:23:08.058Z,67.00
2023-03-29T10:25:43.035Z,66.94
2023-03-29T10:28:18.760Z,68.57
2023-03-29T10:30:52.522Z,68.88
2023-03-29T10:33:22.103Z,70.45
2023-03-29T10:35:49.342Z,70.21
2023-03-29T10:38:19.367Z,69.61
2023-03-29T10:40:51.905Z,69.81
2023-03-29T10:43:26.224Z,70.70
2023-03-29T10:46:06.009Z,70.63
2023-03-29T10:48:36.102Z,71.42
2023-03-29T10:51:05.772Z,70.11
2023-03-29T10:53:35.334Z,70.14
2023-03-29T10:56:08.312Z,71.27
2023-03-29T10:59:08.766Z,73.24
2023-03-29T11:02:13.969Z,73.17
2023-03-29T11:05:00.316Z,73.73
2023-03-29T11:07:50.952Z,73.09
2023-03-29T11:10:53.077Z,74.30
2023-03-29T11:13:41.258Z,74.11
2023-03-29T11:16:30.039Z,73.21
2023-03-29T11:19:02.831Z,72.13
2023-03-29T11:22:07.132Z,72.73
2023-03-29T11:24:59.950Z,72.72
2023-03-29T11:28:03.811Z,73.53
2023-03-29T11:30:34.042Z,75.22
2023-03-29T11:33:07.197Z,74.00
2023-03-29T11:36:05.031Z,75.22
2023-03-29T11:38:37.876Z,74.06
2023-03-29T11:41:16.035Z,74.35
2023-03-29T11:43:55.198Z,74.08
2023-03-29T11:46:28.933Z,73.94
2023-03-29T11:49:17.126Z,73.53
2023-03-29T11:51:56.971Z,74.13
2023-03-29T11:54:41.213Z,74.11
2023-03-29T11:57:32.149Z,72.78
2023-03-29T12:00:02.784Z,73.24
2023-03-29T12:02:49.614Z,73.29
2023-03-29T12:05:24.557Z,73.16
2023-03-29T12:08:16.710Z,72.60
2023-03-29T12:10:56.763Z,73.26
2023-03-29T12:13:32.432Z,73.82
2023-03-29T12:16:02.623Z,73.75
2023-03-29T12:18:36.990Z,73.81
2023-03-29T12:21:12.275Z,74.14
2023-03-29T12:23:42.457Z,74.10
2023-03-29T12:26:17.250Z,73.53
2023-03-29T12:29:07.226Z,74.26
2023-03-29T12:32:11.614Z,74.11
2023-03-29T12:34:48.051Z,73.08
2023-03-29T12:37:41.544Z,72.89
2023-03-29T12:40:28.660Z,72.79
2023-03-29T12:43:31.576Z,72.82
2023-03-29T12:46:27.366Z,74.21
2023-03-29T12:49:05.929Z,73.30
2023-03-29T12:51:35.254Z,73.95
2023-03-29T12:54:21.993Z,73.81
2023-03-29T12:56:52.213Z,74.38
2023-03-29T12:59:47.059Z,74.34
2023-03-29T13:02:14.156Z,74.98
2023-03-29T13:04:44.338Z,73.93
2023-03-29T13:07:27.540Z,73.35
2023-03-29T13:10:00.003Z,73.09
2023-03-29T13:12:35.980Z,73.12
2023-03-29T13:15:05.974Z,73.52
2023-03-29T13:18:00.266Z,73.44
2023-03-29T13:20:33.185Z,74.22
2023-03-29T13:23:31.930Z,74.26
2023-03-29T13:26:19.135Z,73.55
2023-03-29T13:29:01.208Z,73.73
2023-03-29T13:31:54.250Z,74.11
2023-03-29T13:34:23.882Z,74.01
2023-03-29T13:36:57.023Z,74.48
2023-03-29T13:39:29.515Z,73.79
2023-03-29T13:42:28.939Z,73.17
2023-03-29T13:45:13.316Z,72.94
2023-03-29T13:47:48.850Z,73.16
2023-03-29T13:50:35.029Z,73.44
2023-03-29T13:53:20.917Z,73.91
2023-03-29T13:55:51.263Z,73.49
2023-03-29T13:58:27.486Z,73.86
2023-03-29T14:01:29.597Z,73.63
2023-03-29T14:03:57.689Z,73.31
2023-03-29T14:06:30.000Z,73.32
2023-03-29T14:08:57.073Z,73.67
2023-03-29T14:11:29.968Z,73.17
2023-03-29T14:13:59.464Z,73.00
2023-03-29T14:16:36.975Z,73.16
2023-03-29T14:19:06.654Z,74.02
2023-03-29T14:21:34.162Z,73.39
2023-03-29T14:24:02.758Z,73.97
2023-03-29T14:26:32.468Z,73.55
2023-03-29T14:29:01.446Z,73.30
2023-03-29T14:31:36.828Z,73.46
2023-03-29T14:34:06.877Z,73.53
2023-03-29T14:36:34.526Z,73.72
2023-03-29T14:39:17.551Z,73.76
2023-03-29T14:41:53.246Z,73.43
2023-03-29T14:44:27.525Z,74.04
2023-03-29T14:46:55.422Z,75.02
2023-03-29T14:49:23.658Z,74.17
2023-03-29T14:51:52.225Z,75.01
2023-03-29T14:54:32.770Z,75.05
2023-03-29T14:57:03.598Z,74.68
2023-03-29T14:59:41.440Z,74.80
2023-03-29T15:02:27.280Z,75.90
2023-03-29T15:04:56.754Z,74.72
2023-03-29T15:07:25.960Z,75.30
2023-03-29T15:09:53.799Z,75.20
2023-03-29T15:12:21.243Z,75.93
2023-03-29T15:14:52.183Z,75.05
2023-03-29T15:17:39.435Z,75.06
2023-03-29T15:20:32.025Z,75.48
2023-03-29T15:23:09.735Z,75.51
2023-03-29T15:25:51.969Z,75.22
2023-03-29T15:28:46.897Z,75.89
2023-03-29T15:31:19.381Z,75.95
2023-03-29T15:33:47.520Z,75.57
2023-03-29T15:36:15.600Z,75.81
2023-03-29T15:38:45.076Z,75.31
2023-03-29T15:41:14.185Z,76.39
2023-03-29T15:43:42.112Z,75.94
2023-03-29T15:46:12.070Z,75.64
2023-03-29T15:48:39.061Z,75.40
2023-03-29T15:51:06.912Z,75.10
2023-03-29T15:53:35.617Z,75.25
2023-03-29T15:56:05.652Z,75.73
2023-03-29T15:58:34.551Z,75.09
2023-03-29T16:01:19.341Z,75.98
2023-03-29T16:03:48.089Z,75.85
2023-03-29T16:06:16.818Z,75.74
2023-03-29T16:08:43.889Z,75.78
2023-03-29T16:11:11.735Z,75.66
2023-03-29T16:13:38.869Z,76.59
2023-03-29T16:16:06.797Z,76.41
2023-03-29T16:18:34.118Z,76.02
2023-03-29T16:21:01.127Z,75.31
2023-03-29T16:23:28.107Z,75.29
2023-03-29T16:25:55.997Z,75.64
2023-03-29T16:28:23.008Z,74.99
2023-03-29T16:30:49.995Z,75.70
2023-03-29T16:33:16.976Z,75.13
2023-03-29T16:35:44.098Z,74.87
2023-03-29T16:38:11.173Z,75.46
2023-03-29T16:40:38.487Z,75.65
2023-03-29T16:43:05.844Z,76.60
2023-03-29T16:45:32.919Z,76.39
2023-03-29T16:47:59.920Z,76.27
2023-03-29T16:50:26.998Z,76.05
2023-03-29T16:52:54.205Z,76.25
2023-03-29T16:55:21.220Z,75.84
2023-03-29T16:57:48.958Z,75.58
2023-03-29T17:00:18.696Z,75.91
2023-03-29T17:02:49.775Z,75.66
2023-03-29T17:05:18.918Z,75.53
2023-03-29T17:07:46.937Z,75.76
2023-03-29T17:10:14.408Z,76.47
2023-03-29T17:12:41.614Z,75.81
2023-03-29T17:15:09.569Z,76.69
2023-03-29T17:17:37.875Z,76.85
2023-03-29T17:20:08.735Z,76.28
2023-03-29T17:22:36.199Z,76.99
2023-03-29T17:25:06.347Z,76.85
2023-03-29T17:27:34.917Z,77.01
2023-03-29T17:30:02.318Z,76.19
2023-03-29T17:32:31.463Z,76.07
2023-03-29T17:34:59.575Z,75.76
2023-03-29T17:37:27.921Z,75.70
2023-03-29T17:39:54.976Z,75.37
2023-03-29T17:42:21.900Z,75.49
2023-03-29T17:44:48.961Z,75.36
2023-03-29T17:47:15.992Z,75.58
2023-03-29T17:49:42.910Z,75.08
2023-03-29T17:52:09.870Z,75.12
2023-03-29T17:54:36.826Z,74.64
2023-03-29T17:57:04.580Z,74.81
2023-03-29T17:59:31.616Z,75.14
2023-03-29T18:02:00.195Z,75.45
2023-03-29T18:04:27.204Z,74.93
2023-03-29T18:06:55.087Z,75.07
2023-03-29T18:09:22.195Z,75.26
2023-03-29T18:11:49.234Z,75.35
2023-03-29T18:14:16.478Z,75.36
2023-03-29T18:16:43.619Z,75.04
2023-03-29T18:19:10.908Z,74.91
2023-03-29T18:21:37.847Z,75.21
2023-03-29T18:24:04.978Z,75.05
2023-03-29T18:26:32.879Z,75.47
2023-03-29T18:28:59.846Z,75.33
2023-03-29T18:31:28.125Z,75.04
2023-03-29T18:33:55.108Z,75.20
2023-03-29T18:36:22.200Z,74.83
2023-03-29T18:38:49.256Z,75.00
2023-03-29T18:41:16.369Z,74.88
2023-03-29T18:43:44.334Z,74.47
2023-03-29T18:46:11.406Z,75.28
2023-03-29T18:48:39.170Z,76.03
2023-03-29T18:51:07.805Z,75.98
2023-03-29T18:53:35.686Z,75.33
2023-03-29T18:56:04.567Z,75.32
2023-03-29T18:58:32.297Z,74.75
2023-03-29T19:01:04.301Z,75.22
2023-03-29T19:03:32.704Z,75.20
2023-03-29T19:06:00.080Z,74.73
2023-03-29T19:08:27.570Z,74.87
2023-03-29T19:11:01.152Z,75.11
2023-03-29T19:13:28.199Z,74.92
2023-03-29T19:15:55.258Z,75.18
2023-03-29T19:18:22.415Z,75.22
2023-03-29T19:20:51.318Z,75.04
2023-03-29T19:23:18.440Z,74.73
2023-03-29T19:25:56.567Z,74.69
2023-03-29T19:28:25.110Z,74.60
2023-03-29T19:30:52.377Z,74.55
2023-03-29T19:33:20.059Z,75.27
2023-03-29T19:35:49.563Z,74.95
2023-03-29T19:38:16.632Z,75.69
2023-03-29T19:40:51.490Z,75.04
2023-03-29T19:43:20.784Z,75.94
2023-03-29T19:45:49.936Z,75.23
2023-03-29T19:50:48.316Z,75.33
2023-03-29T19:53:15.407Z,76.14
2023-03-29T19:55:44.322Z,75.38
2023-03-29T19:58:11.382Z,75.31
2023-03-29T20:00:39.086Z,75.43
2023-03-29T20:03:10.169Z,75.72
2023-03-29T20:05:38.926Z,75.91
2023-03-29T20:08:06.895Z,75.84
2023-03-29T20:10:35.355Z,75.59
2023-03-29T20:13:03.216Z,75.49
2023-03-29T20:15:30.513Z,75.42
2023-03-29T20:17:59.917Z,76.08
2023-03-29T20:20:27.566Z,75.56
2023-03-29T20:22:58.570Z,75.75
2023-03-29T20:25:25.995Z,75.50
2023-03-29T20:27:53.328Z,75.40
2023-03-29T20:30:20.701Z,75.71
2023-03-29T20:32:47.838Z,75.93
2023-03-29T20:35:14.863Z,75.61
2023-03-29T20:37:41.880Z,75.38
2023-03-29T20:40:11.310Z,75.35
2023-03-29T20:42:39.628Z,75.34
2023-03-29T20:45:08.079Z,75.32
2023-03-29T20:47:50.540Z,76.04
2023-03-29T20:50:19.410Z,75.66
2023-03-29T20:52:46.777Z,76.01
2023-03-29T20:55:16.819Z,76.06
2023-03-29T20:57:43.766Z,75.91
2023-03-29T21:00:13.856Z,76.00
2023-03-29T21:02:41.023Z,76.12
2023-03-29T21:05:08.783Z,75.94
2023-03-29T21:07:36.527Z,76.00
2023-03-29T21:10:04.163Z,75.79
2023-03-29T21:12:31.627Z,75.33
2023-03-29T21:14:58.585Z,75.43
2023-03-29T21:17:25.616Z,75.91
2023-03-29T21:19:53.312Z,76.23
2023-03-29T21:22:20.250Z,76.79
2023-03-29T21:24:47.184Z,76.96
2023-03-29T21:27:14.193Z,76.11
2023-03-29T21:29:41.642Z,76.55
2023-03-29T21:32:09.166Z,77.41
2023-03-29T21:34:36.274Z,77.11
2023-03-29T21:37:03.306Z,76.41
2023-03-29T21:39:30.506Z,76.65
2023-03-29T21:41:57.466Z,76.99
2023-03-29T21:44:24.548Z,77.10
2023-03-29T21:46:51.625Z,77.42
2023-03-29T21:49:18.726Z,77.95
2023-03-29T21:51:46.526Z,77.58
2023-03-29T21:54:13.547Z,77.59
2023-03-29T21:56:40.553Z,77.06
2023-03-29T21:59:07.507Z,77.06
2023-03-29T22:01:34.584Z,77.34
2023-03-29T22:04:01.556Z,77.40
2023-03-29T22:06:28.638Z,76.74
2023-03-29T22:08:55.666Z,76.82
2023-03-29T22:11:23.428Z,76.78
2023-03-29T22:13:52.451Z,76.39
2023-03-29T22:16:19.495Z,76.92
2023-03-29T22:18:49.752Z,76.55
2023-03-29T22:21:25.450Z,77.35
2023-03-29T22:23:55.537Z,77.08
2023-03-29T22:26:24.949Z,76.81
2023-03-29T22:28:51.915Z,76.91
2023-03-29T22:31:21.328Z,76.78
2023-03-29T22:33:48.985Z,77.18
2023-03-29T22:36:24.230Z,77.63
2023-03-29T22:38:51.671Z,77.68
2023-03-29T22:41:20.390Z,77.54
2023-03-29T22:43:47.565Z,77.51
2023-03-29T22:46:14.819Z,78.14
2023-03-29T22:48:41.878Z,78.00
2023-03-29T22:51:08.821Z,78.75
2023-03-29T22:53:35.959Z,78.67
2023-03-29T22:56:04.212Z,78.65
2023-03-29T22:58:31.334Z,78.25
2023-03-29T23:00:58.458Z,78.30
2023-03-29T23:03:25.570Z,78.07
2023-03-29T23:05:55.231Z,77.89
2023-03-29T23:08:25.286Z,78.03
2023-03-29T23:10:52.876Z,77.77
2023-03-29T23:13:24.216Z,77.36
2023-03-29T23:15:53.892Z,77.36
2023-03-29T23:18:22.353Z,77.44
2023-03-29T23:20:51.874Z,77.60
2023-03-29T23:23:20.530Z,77.38
2023-03-29T23:25:48.760Z,77.57
2023-03-29T23:28:21.837Z,77.49
2023-03-29T23:31:03.083Z,77.15
2023-03-29T23:33:35.964Z,76.93
2023-03-29T23:36:06.106Z,76.40
2023-03-29T23:38:34.521Z,76.25
2023-03-29T23:41:03.916Z,76.27
2023-03-29T23:43:33.903Z,76.30
2023-03-29T23:46:03.380Z,76.58
2023-03-29T23:48:30.621Z,76.23
2023-03-29T23:50:57.576Z,76.43
2023-03-29T23:53:28.528Z,76.22
2023-03-29T23:56:00.573Z,76.29
2023-03-29T23:58:28.871Z,76.28
